Time;durP1;ratioP1;P1;durP2;ratioP2;P2;SDS_P1;SDS_P2;PMS_P1;PMS_P2;Temp;Humidity;BMP_temperature;BMP_pressure;BME280_temperature;BME280_humidity;BME280_pressure;Samples;Min_cycle;Max_cycle;Signal;HPM_P1;HPM_P2
2022/08/21 00:02:20;;;;;;;13.15;6.78;;;17.60;99.90;;;;;;4954272;28;20386;-48
2022/08/21 00:04:46;;;;;;;10.43;6.53;;;17.60;99.90;;;;;;4954738;28;20028;-45
2022/08/21 00:07:12;;;;;;;10.00;6.22;;;17.60;99.90;;;;;;4971325;28;20045;-46
2022/08/21 00:09:38;;;;;;;11.05;6.05;;;17.60;99.90;;;;;;4973187;28;20045;-47
2022/08/21 00:12:04;;;;;;;11.25;6.18;;;17.50;99.90;;;;;;4973063;28;20054;-47
2022/08/21 00:14:30;;;;;;;14.57;6.57;;;17.50;99.90;;;;;;4972842;28;20403;-47
2022/08/21 00:16:55;;;;;;;12.18;6.32;;;17.50;99.90;;;;;;4972772;28;20070;-50
2022/08/21 00:19:24;;;;;;;10.02;6.15;;;17.50;99.90;;;;;;4973141;28;20513;-49
2022/08/21 00:21:51;;;;;;;10.63;6.10;;;17.40;99.90;;;;;;4972879;28;20460;-48
2022/08/21 00:24:18;;;;;;;12.07;6.50;;;17.40;99.90;;;;;;4972608;28;20055;-46
2022/08/21 00:26:44;;;;;;;11.93;6.32;;;17.40;99.90;;;;;;4972337;28;20043;-47
2022/08/21 00:29:10;;;;;;;12.77;6.30;;;17.30;99.90;;;;;;4972643;28;20039;-49
2022/08/21 00:31:36;;;;;;;11.43;5.82;;;17.40;99.90;;;;;;4972795;28;20423;-48
2022/08/21 00:34:03;;;;;;;11.18;5.78;;;17.30;99.90;;;;;;4972666;28;20042;-47
2022/08/21 00:36:29;;;;;;;11.32;5.97;;;17.30;99.90;;;;;;4972546;28;20078;-47
2022/08/21 00:38:55;;;;;;;9.48;5.80;;;17.30;99.90;;;;;;4972288;28;20043;-51
2022/08/21 00:41:23;;;;;;;10.32;6.15;;;17.20;99.90;;;;;;4972659;28;20061;-50
2022/08/21 00:43:50;;;;;;;8.98;5.40;;;17.20;99.90;;;;;;4972225;28;20053;-48
2022/08/21 00:46:16;;;;;;;10.20;5.75;;;17.10;99.90;;;;;;4972227;28;20125;-48
2022/08/21 00:48:42;;;;;;;11.65;5.80;;;17.10;99.90;;;;;;4972242;28;20305;-45
2022/08/21 00:51:22;;;;;;;10.10;5.57;;;17.10;99.90;;;;;;4972167;28;20490;-48
2022/08/21 00:53:53;;;;;;;11.02;5.57;;;17.00;99.90;;;;;;4972491;28;20046;-49
2022/08/21 00:56:21;;;;;;;7.97;5.47;;;17.00;99.90;;;;;;4972077;28;20471;-48
2022/08/21 00:58:48;;;;;;;8.95;5.93;;;16.90;99.90;;;;;;4972095;28;20039;-48
2022/08/21 01:01:14;;;;;;;8.32;5.68;;;16.90;99.90;;;;;;4972354;28;20034;-47
2022/08/21 01:03:40;;;;;;;10.55;6.03;;;16.90;99.90;;;;;;4972250;28;20118;-46
2022/08/21 01:06:06;;;;;;;7.88;5.47;;;16.90;99.90;;;;;;4972264;28;20046;-47
2022/08/21 01:08:33;;;;;;;9.80;5.93;;;16.80;99.90;;;;;;4971870;28;20038;-48
2022/08/21 01:11:00;;;;;;;8.32;5.40;;;16.70;99.90;;;;;;4971678;28;20081;-48
2022/08/21 01:13:28;;;;;;;8.73;5.15;;;16.80;99.90;;;;;;4971837;28;20074;-48
2022/08/21 01:15:59;;;;;;;8.50;5.30;;;16.80;99.90;;;;;;4971958;28;20376;-48
2022/08/21 01:18:26;;;;;;;9.82;5.75;;;16.70;99.90;;;;;;4970920;28;20043;-50
2022/08/21 01:21:11;;;;;;;9.70;5.47;;;16.60;99.90;;;;;;4971472;28;20499;-50
2022/08/21 01:23:39;;;;;;;9.43;5.80;;;16.60;99.90;;;;;;4971619;28;20082;-48
2022/08/21 01:26:06;;;;;;;8.35;5.93;;;16.50;99.90;;;;;;4953417;28;20055;-50
2022/08/21 01:28:40;;;;;;;9.23;5.90;;;16.50;99.90;;;;;;4951939;28;20043;-49
2022/08/21 01:31:09;;;;;;;7.72;5.63;;;16.40;99.90;;;;;;4953184;28;20047;-48
2022/08/21 01:33:35;;;;;;;9.52;5.75;;;16.40;99.90;;;;;;4952129;28;20183;-45
2022/08/21 01:36:00;;;;;;;9.13;5.90;;;16.40;99.90;;;;;;4952331;28;20395;-49
2022/08/21 01:38:26;;;;;;;12.27;5.85;;;16.30;99.90;;;;;;4952282;28;20094;-49
2022/08/21 01:40:52;;;;;;;13.82;6.43;;;16.30;99.90;;;;;;4955710;28;20042;-50
2022/08/21 01:43:18;;;;;;;8.13;5.93;;;16.30;99.90;;;;;;4962357;28;20031;-48
2022/08/21 01:45:43;;;;;;;8.25;6.05;;;16.30;99.90;;;;;;4962682;28;20038;-50
2022/08/21 01:48:09;;;;;;;7.93;6.07;;;16.30;99.90;;;;;;4962734;28;20406;-48
2022/08/21 01:50:36;;;;;;;10.93;6.07;;;16.30;99.90;;;;;;4963410;28;20062;-50
2022/08/21 01:53:01;;;;;;;7.82;5.38;;;16.30;99.90;;;;;;4962675;28;20450;-48
2022/08/21 01:55:27;;;;;;;11.32;5.90;;;16.20;99.90;;;;;;4960982;28;20074;-49
2022/08/21 01:57:53;;;;;;;9.55;5.78;;;16.20;99.90;;;;;;4961333;28;20047;-49
2022/08/21 02:00:25;;;;;;;9.57;5.68;;;16.20;99.90;;;;;;4962003;28;20049;-49
2022/08/21 02:02:51;;;;;;;8.27;5.78;;;16.20;99.90;;;;;;4961797;28;20031;-48
2022/08/21 02:05:18;;;;;;;10.98;6.18;;;16.10;99.90;;;;;;4961036;28;20039;-49
2022/08/21 02:07:49;;;;;;;9.20;6.03;;;16.10;99.90;;;;;;4962467;28;20066;-47
2022/08/21 02:10:19;;;;;;;15.30;7.10;;;16.00;99.90;;;;;;4961509;28;20031;-46
2022/08/21 02:12:45;;;;;;;9.40;6.40;;;16.00;99.90;;;;;;4961627;28;20472;-49
2022/08/21 02:15:11;;;;;;;12.13;6.88;;;16.00;99.90;;;;;;4961099;28;20548;-50
2022/08/21 02:17:47;;;;;;;10.18;6.50;;;16.00;99.90;;;;;;4962551;28;20039;-48
2022/08/21 02:20:19;;;;;;;12.27;7.05;;;16.00;99.90;;;;;;4961587;28;20027;-53
2022/08/21 02:22:45;;;;;;;9.80;6.35;;;15.90;99.90;;;;;;4962997;28;20073;-50
2022/08/21 02:25:11;;;;;;;10.85;7.05;;;15.90;99.90;;;;;;4961635;28;20075;-49
2022/08/21 02:27:42;;;;;;;8.73;6.88;;;15.90;99.90;;;;;;4961233;28;20129;-50
2022/08/21 02:30:14;;;;;;;9.40;6.32;;;15.90;99.90;;;;;;4964374;28;21233;-49
2022/08/21 02:32:40;;;;;;;10.40;6.68;;;15.90;99.90;;;;;;4966321;28;20042;-47
2022/08/21 02:35:07;;;;;;;11.23;6.75;;;15.90;99.90;;;;;;4966091;28;20141;-47
2022/08/21 02:37:33;;;;;;;9.75;7.13;;;15.80;99.90;;;;;;4965525;28;20049;-51
2022/08/21 02:40:00;;;;;;;9.27;6.53;;;15.80;99.90;;;;;;4970036;28;20030;-50
2022/08/21 02:42:26;;;;;;;8.75;6.68;;;15.70;99.90;;;;;;4972711;28;20661;-52
2022/08/21 02:44:52;;;;;;;11.23;6.57;;;15.80;99.90;;;;;;4972773;28;20057;-47
2022/08/21 02:47:18;;;;;;;11.60;6.80;;;15.70;99.90;;;;;;4974353;28;20418;-48
2022/08/21 02:49:43;;;;;;;10.48;7.38;;;15.70;99.90;;;;;;4974597;28;20046;-47
2022/08/21 02:52:09;;;;;;;10.52;7.50;;;15.70;99.90;;;;;;4974330;28;20398;-47
2022/08/21 02:54:35;;;;;;;9.98;7.35;;;15.70;99.90;;;;;;4974583;28;20096;-47
2022/08/21 02:57:00;;;;;;;10.02;6.95;;;15.70;99.90;;;;;;4973558;28;20144;-51
2022/08/21 02:59:26;;;;;;;11.40;6.88;;;15.60;99.90;;;;;;4963360;28;20086;-49
2022/08/21 03:01:52;;;;;;;11.57;6.22;;;15.60;99.90;;;;;;4955390;28;20079;-51
2022/08/21 03:04:18;;;;;;;10.40;7.15;;;15.60;99.90;;;;;;4954952;28;20116;-49
2022/08/21 03:06:43;;;;;;;10.77;7.15;;;15.60;99.90;;;;;;4955146;28;20058;-50
2022/08/21 03:09:09;;;;;;;12.80;8.18;;;15.60;99.90;;;;;;4937824;28;20043;-50
2022/08/21 03:11:35;;;;;;;13.30;7.28;;;15.60;99.90;;;;;;4954978;28;20372;-50
2022/08/21 03:14:01;;;;;;;11.23;7.10;;;15.60;99.90;;;;;;4955096;28;20046;-48
2022/08/21 03:16:27;;;;;;;12.73;8.10;;;15.60;99.90;;;;;;4954683;28;20410;-48
2022/08/21 03:18:52;;;;;;;11.88;7.40;;;15.60;99.90;;;;;;4954906;28;20186;-49
2022/08/21 03:21:19;;;;;;;11.07;7.32;;;15.40;99.90;;;;;;4954411;28;20522;-51
2022/08/21 03:23:45;;;;;;;13.02;7.60;;;15.50;99.90;;;;;;4955025;28;20155;-48
2022/08/21 03:26:11;;;;;;;12.38;7.65;;;15.40;99.90;;;;;;4954233;28;20063;-48
2022/08/21 03:28:38;;;;;;;12.85;8.27;;;15.40;99.90;;;;;;4954558;28;20521;-48
2022/08/21 03:31:05;;;;;;;13.13;8.10;;;15.40;99.90;;;;;;4954548;28;20035;-47
2022/08/21 03:33:31;;;;;;;11.80;7.60;;;15.40;99.90;;;;;;4954807;28;20094;-51
2022/08/21 03:36:04;;;;;;;11.60;7.55;;;15.30;99.90;;;;;;4954167;28;20043;-48
2022/08/21 03:38:32;;;;;;;15.38;8.68;;;15.30;99.90;;;;;;4954375;28;20058;-49
2022/08/21 03:40:59;;;;;;;12.18;8.75;;;15.20;99.90;;;;;;4961338;28;20046;-47
2022/08/21 03:43:26;;;;;;;10.15;8.18;;;15.20;99.90;;;;;;4973864;28;20037;-46
2022/08/21 03:45:52;;;;;;;14.05;7.97;;;15.20;99.90;;;;;;4973509;28;20089;-48
2022/08/21 03:48:18;;;;;;;12.75;8.38;;;15.20;99.90;;;;;;4973165;28;20034;-48
2022/08/21 03:50:46;;;;;;;12.00;7.72;;;15.10;99.90;;;;;;4973238;28;20372;-49
2022/08/21 03:53:14;;;;;;;12.75;8.45;;;15.10;99.90;;;;;;4973274;28;20030;-51
2022/08/21 03:55:40;;;;;;;10.18;7.72;;;15.00;99.90;;;;;;4953425;28;20042;-49
2022/08/21 03:58:05;;;;;;;11.23;7.78;;;15.10;99.90;;;;;;4959547;28;20038;-47
2022/08/21 04:00:31;;;;;;;10.65;7.10;;;15.00;99.90;;;;;;4973249;28;20038;-49
2022/08/21 04:02:57;;;;;;;12.13;7.55;;;15.00;99.90;;;;;;4973271;28;20062;-49
2022/08/21 04:05:29;;;;;;;11.75;7.53;;;14.90;99.90;;;;;;4973258;28;20035;-48
2022/08/21 04:08:05;;;;;;;11.07;7.38;;;14.90;99.90;;;;;;4954122;28;20051;-46
2022/08/21 04:10:34;;;;;;;9.82;7.30;;;14.80;99.90;;;;;;4954368;28;20043;-48
2022/08/21 04:13:00;;;;;;;10.75;7.88;;;14.70;99.90;;;;;;4954170;28;20074;-47
2022/08/21 04:15:27;;;;;;;10.07;7.22;;;14.70;99.90;;;;;;4953475;28;20074;-47
2022/08/21 04:17:53;;;;;;;8.95;6.88;;;14.70;99.90;;;;;;4953539;28;20056;-49
2022/08/21 04:20:19;;;;;;;9.93;6.90;;;14.70;99.90;;;;;;4954733;28;20031;-47
2022/08/21 04:22:45;;;;;;;9.95;7.22;;;14.60;99.90;;;;;;4962704;28;20050;-48
2022/08/21 04:25:13;;;;;;;11.35;7.20;;;14.70;99.90;;;;;;4955117;28;20515;-47
2022/08/21 04:27:40;;;;;;;8.45;6.47;;;14.60;99.90;;;;;;4972016;28;20034;-46
2022/08/21 04:30:07;;;;;;;7.53;6.13;;;14.60;99.90;;;;;;4972623;28;20499;-44
2022/08/21 04:32:32;;;;;;;9.48;6.22;;;14.50;99.90;;;;;;4972560;28;20877;-49
2022/08/21 04:35:06;;;;;;;9.20;6.57;;;14.50;99.90;;;;;;4972567;28;20106;-46
2022/08/21 04:37:31;;;;;;;10.10;5.97;;;14.50;99.90;;;;;;4972432;28;20345;-46
2022/08/21 04:39:58;;;;;;;9.95;5.82;;;14.50;99.90;;;;;;4953168;28;20148;-46
2022/08/21 04:42:27;;;;;;;7.72;5.30;;;14.50;99.90;;;;;;4953151;28;20043;-49
2022/08/21 04:44:53;;;;;;;11.45;6.32;;;14.50;99.90;;;;;;4953063;28;20091;-53
2022/08/21 04:47:19;;;;;;;10.20;6.97;;;14.50;99.90;;;;;;4952966;28;20039;-47
2022/08/21 04:49:45;;;;;;;12.35;6.57;;;14.50;99.90;;;;;;4953107;28;20042;-48
2022/08/21 04:52:14;;;;;;;11.43;6.32;;;14.40;99.90;;;;;;4953008;28;20406;-50
2022/08/21 04:54:43;;;;;;;10.63;5.88;;;14.50;99.90;;;;;;4952666;28;20039;-46
2022/08/21 04:57:10;;;;;;;10.20;6.10;;;14.50;99.90;;;;;;4952556;28;20053;-48
2022/08/21 04:59:40;;;;;;;9.75;6.78;;;14.50;99.90;;;;;;4953023;28;20110;-46
2022/08/21 05:02:08;;;;;;;9.80;6.28;;;14.50;99.90;;;;;;4953211;28;20361;-47
2022/08/21 05:04:38;;;;;;;9.02;6.35;;;14.50;99.90;;;;;;4952615;28;20043;-51
2022/08/21 05:07:09;;;;;;;8.73;6.13;;;14.50;99.90;;;;;;4951539;28;20043;-46
2022/08/21 05:09:38;;;;;;;11.32;6.20;;;14.50;99.90;;;;;;4952610;28;20043;-49
2022/08/21 05:12:04;;;;;;;8.05;5.07;;;14.70;99.90;;;;;;4965545;28;20427;-47
2022/08/21 05:14:30;;;;;;;7.70;4.93;;;14.60;99.90;;;;;;4972155;28;20046;-48
2022/08/21 05:16:56;;;;;;;12.60;6.75;;;14.70;99.90;;;;;;4970649;28;20043;-49
2022/08/21 05:19:21;;;;;;;12.43;6.32;;;14.70;99.90;;;;;;4972132;28;20041;-48
2022/08/21 05:21:47;;;;;;;11.68;6.28;;;14.70;99.90;;;;;;4971864;28;20049;-48
2022/08/21 05:24:14;;;;;;;13.57;6.70;;;14.70;99.90;;;;;;4971604;28;20119;-49
2022/08/21 05:26:40;;;;;;;10.02;6.00;;;14.70;99.90;;;;;;4971723;28;20480;-49
2022/08/21 05:29:06;;;;;;;10.35;6.70;;;14.70;99.90;;;;;;4971199;28;20114;-52
2022/08/21 05:31:32;;;;;;;12.65;7.43;;;14.70;99.90;;;;;;4971864;28;20035;-46
2022/08/21 05:33:58;;;;;;;11.55;7.38;;;14.70;99.90;;;;;;4971577;28;20090;-49
2022/08/21 05:36:23;;;;;;;10.68;7.13;;;14.80;99.90;;;;;;4952081;28;20039;-49
2022/08/21 05:38:49;;;;;;;12.02;6.93;;;14.80;99.90;;;;;;4952171;28;20098;-49
2022/08/21 05:41:15;;;;;;;14.10;7.22;;;14.90;99.90;;;;;;4952242;28;20047;-47
2022/08/21 05:43:41;;;;;;;10.88;7.03;;;15.00;99.90;;;;;;4952438;28;20027;-50
2022/08/21 05:46:07;;;;;;;9.95;6.88;;;15.10;99.90;;;;;;4952595;28;20112;-50
2022/08/21 05:48:34;;;;;;;11.05;6.55;;;15.10;99.90;;;;;;4952370;28;20404;-47
2022/08/21 05:51:09;;;;;;;11.77;7.00;;;15.00;99.90;;;;;;4952164;28;20050;-50
2022/08/21 05:53:35;;;;;;;11.82;6.10;;;15.10;99.90;;;;;;4952129;28;20035;-45
2022/08/21 05:56:03;;;;;;;11.75;7.03;;;15.10;99.90;;;;;;4952555;28;20447;-49
2022/08/21 05:58:30;;;;;;;11.25;6.53;;;15.20;99.90;;;;;;4961254;28;20554;-47
2022/08/21 06:00:57;;;;;;;11.77;6.20;;;15.30;99.90;;;;;;4971535;28;20117;-50
2022/08/21 06:03:25;;;;;;;12.00;7.65;;;15.30;99.90;;;;;;4972715;28;20043;-50
2022/08/21 06:05:52;;;;;;;12.57;5.90;;;15.40;99.90;;;;;;4977640;28;20089;-49
2022/08/21 06:08:19;;;;;;;12.43;6.70;;;15.40;99.90;;;;;;4977328;28;20035;-48
2022/08/21 06:10:46;;;;;;;9.43;6.18;;;15.40;99.90;;;;;;4977840;28;20061;-47
2022/08/21 06:13:13;;;;;;;10.45;6.75;;;15.60;99.90;;;;;;4977490;28;20086;-49
2022/08/21 06:15:39;;;;;;;10.75;6.60;;;15.60;99.90;;;;;;4977223;28;20031;-44
2022/08/21 06:18:05;;;;;;;11.20;7.00;;;15.60;99.90;;;;;;4977602;28;20045;-49
2022/08/21 06:20:31;;;;;;;11.55;5.63;;;15.60;99.90;;;;;;4977840;28;20396;-47
2022/08/21 06:22:57;;;;;;;12.38;6.32;;;15.70;99.90;;;;;;4977372;28;20035;-50
2022/08/21 06:25:24;;;;;;;10.68;6.53;;;15.70;99.90;;;;;;4976903;28;20561;-45
2022/08/21 06:27:50;;;;;;;11.85;6.80;;;15.80;99.90;;;;;;4976988;28;20046;-49
2022/08/21 06:30:16;;;;;;;14.45;7.25;;;15.90;99.90;;;;;;4977127;28;20053;-50
2022/08/21 06:32:42;;;;;;;12.07;6.57;;;15.90;99.90;;;;;;4977453;28;20047;-50
2022/08/21 06:35:08;;;;;;;11.23;5.88;;;16.00;99.90;;;;;;4977017;28;20049;-49
2022/08/21 06:37:34;;;;;;;10.10;6.15;;;16.00;99.90;;;;;;4977305;28;20074;-47
2022/08/21 06:39:59;;;;;;;12.18;6.53;;;16.10;99.90;;;;;;4977061;28;20097;-48
2022/08/21 06:42:27;;;;;;;14.65;7.68;;;16.30;99.90;;;;;;4959995;28;20041;-49
2022/08/21 06:44:53;;;;;;;11.98;6.75;;;16.40;99.90;;;;;;4977672;28;20116;-49
2022/08/21 06:47:19;;;;;;;16.75;6.18;;;16.50;99.90;;;;;;4977362;28;20039;-50
2022/08/21 06:49:44;;;;;;;11.95;6.22;;;16.60;99.90;;;;;;4977313;28;20036;-49
2022/08/21 06:52:12;;;;;;;11.68;6.30;;;16.70;99.90;;;;;;4977524;28;20045;-48
2022/08/21 06:54:39;;;;;;;14.65;6.60;;;16.70;99.90;;;;;;4968448;28;20560;-47
2022/08/21 06:57:04;;;;;;;11.68;6.38;;;16.80;99.90;;;;;;4957889;28;20039;-46
2022/08/21 06:59:31;;;;;;;15.90;7.07;;;16.90;99.90;;;;;;4957929;28;20035;-49
2022/08/21 07:01:58;;;;;;;9.70;6.45;;;17.00;99.90;;;;;;4958193;28;20514;-50
2022/08/21 07:04:24;;;;;;;11.82;6.25;;;17.10;99.90;;;;;;4957898;28;20105;-50
2022/08/21 07:06:50;;;;;;;16.42;6.90;;;17.20;99.90;;;;;;4958104;28;20055;-50
2022/08/21 07:09:15;;;;;;;13.07;7.03;;;17.20;99.90;;;;;;4957799;28;20046;-47
2022/08/21 07:11:41;;;;;;;13.23;6.15;;;17.30;99.90;;;;;;4957602;28;20093;-45
2022/08/21 07:14:07;;;;;;;10.65;5.60;;;17.40;99.90;;;;;;4957929;28;20045;-47
2022/08/21 07:16:32;;;;;;;11.02;5.53;;;17.50;99.90;;;;;;4937363;28;20058;-47
2022/08/21 07:18:59;;;;;;;15.68;5.32;;;17.70;99.90;;;;;;4954751;28;20094;-48
2022/08/21 07:21:24;;;;;;;9.25;5.43;;;17.70;99.90;;;;;;4954740;28;20047;-49
2022/08/21 07:23:51;;;;;;;10.25;5.68;;;17.90;99.90;;;;;;4954573;28;20035;-51
2022/08/21 07:26:20;;;;;;;12.70;4.80;;;17.90;99.90;;;;;;4954524;28;20055;-50
2022/08/21 07:28:48;;;;;;;14.18;5.68;;;18.10;99.90;;;;;;4954266;28;20110;-51
2022/08/21 07:31:15;;;;;;;11.45;4.85;;;18.10;99.90;;;;;;4958977;28;20097;-49
2022/08/21 07:33:42;;;;;;;9.07;4.00;;;18.30;99.90;;;;;;4955548;28;20035;-48
2022/08/21 07:36:08;;;;;;;9.85;3.30;;;18.50;99.90;;;;;;4937185;28;20046;-50
2022/08/21 07:38:35;;;;;;;10.75;2.90;;;18.60;99.90;;;;;;4954539;28;20396;-49
2022/08/21 07:41:02;;;;;;;9.30;2.60;;;18.70;99.90;;;;;;4954037;28;20047;-48
2022/08/21 07:43:29;;;;;;;8.48;2.55;;;18.70;99.90;;;;;;4954559;28;20395;-49
2022/08/21 07:45:55;;;;;;;7.90;2.70;;;18.80;99.90;;;;;;4953462;28;20053;-48
2022/08/21 07:48:21;;;;;;;9.30;2.40;;;18.90;99.90;;;;;;4963759;28;20137;-50
2022/08/21 07:50:48;;;;;;;8.65;2.17;;;18.90;99.90;;;;;;4963131;28;20505;-50
2022/08/21 07:53:14;;;;;;;8.40;2.03;;;19.00;99.90;;;;;;4962884;28;20030;-47
2022/08/21 07:55:40;;;;;;;8.13;1.80;;;19.00;99.90;;;;;;4964716;28;20023;-51
2022/08/21 07:58:06;;;;;;;7.72;1.92;;;19.10;99.90;;;;;;4964446;28;20167;-48
2022/08/21 08:00:32;;;;;;;11.07;2.05;;;19.10;99.90;;;;;;4963165;28;20043;-48
2022/08/21 08:02:58;;;;;;;9.85;2.00;;;19.10;99.90;;;;;;4961895;28;20101;-49
2022/08/21 08:05:27;;;;;;;7.00;1.85;;;19.10;99.90;;;;;;4946677;28;20109;-47
2022/08/21 08:07:52;;;;;;;8.73;2.00;;;19.20;99.90;;;;;;4963298;28;20379;-50
2022/08/21 08:10:19;;;;;;;10.38;2.50;;;19.20;99.90;;;;;;4963102;28;20054;-46
2022/08/21 08:12:45;;;;;;;9.75;2.30;;;19.30;99.90;;;;;;4963203;28;20039;-48
2022/08/21 08:15:16;;;;;;;9.70;2.60;;;19.30;99.90;;;;;;4963592;28;20391;-48
2022/08/21 08:17:43;;;;;;;8.10;2.72;;;19.40;99.90;;;;;;4962350;28;20035;-49
2022/08/21 08:20:10;;;;;;;13.02;2.72;;;19.40;99.90;;;;;;4961675;28;20035;-47
2022/08/21 08:22:37;;;;;;;7.80;2.67;;;19.50;99.90;;;;;;4962880;28;20065;-48
2022/08/21 08:25:04;;;;;;;7.93;2.85;;;19.50;99.90;;;;;;4961463;28;20098;-50
2022/08/21 08:27:30;;;;;;;9.70;2.50;;;19.50;99.90;;;;;;4960300;28;20395;-50
2022/08/21 08:29:56;;;;;;;10.07;2.65;;;19.60;99.90;;;;;;4961193;28;20177;-49
2022/08/21 08:32:23;;;;;;;11.90;2.92;;;19.80;99.90;;;;;;4962265;28;20117;-46
2022/08/21 08:34:51;;;;;;;8.43;2.70;;;19.70;99.90;;;;;;4962572;28;20047;-48
2022/08/21 08:37:17;;;;;;;8.32;2.42;;;19.80;99.90;;;;;;4962176;28;20093;-47
2022/08/21 08:39:43;;;;;;;10.13;2.97;;;19.80;99.90;;;;;;4961048;28;20077;-50
2022/08/21 08:42:12;;;;;;;8.52;2.55;;;19.90;99.90;;;;;;4962151;28;20038;-50
2022/08/21 08:44:39;;;;;;;8.88;3.20;;;20.00;99.90;;;;;;4962116;28;20562;-48
2022/08/21 08:47:05;;;;;;;8.75;2.83;;;20.00;99.90;;;;;;4962865;28;20038;-49
2022/08/21 08:50:00;;;;;;;8.80;2.53;;;20.00;99.90;;;;;;4963762;28;20035;-50
2022/08/21 08:52:30;;;;;;;;;;;20.10;99.90;;;;;;4959179;28;20102;-50
2022/08/21 08:55:20;;;;;;;10.75;3.08;;;20.30;99.90;;;;;;4944806;28;19953;-45
2022/08/21 08:57:49;;;;;;;9.50;3.30;;;20.50;99.90;;;;;;4959839;28;20051;-48
2022/08/21 09:00:18;;;;;;;8.27;3.67;;;20.50;99.90;;;;;;4960378;28;20037;-48
2022/08/21 09:02:46;;;;;;;10.63;3.55;;;20.60;99.90;;;;;;4957447;28;20039;-46
2022/08/21 09:05:52;;;;;;;9.38;3.38;;;20.80;99.90;;;;;;4959733;28;20050;-47
2022/08/21 09:08:50;;;;;;;10.90;4.20;;;21.00;99.90;;;;;;4960667;28;20039;-49
2022/08/21 09:12:02;;;;;;;10.38;3.80;;;21.20;99.90;;;;;;4898000;28;20052;-48
2022/08/21 09:15:01;;;;;;;10.13;3.42;;;21.50;99.90;;;;;;4960785;28;20115;-51
2022/08/21 09:17:45;;;;;;;8.70;3.50;;;21.90;99.90;;;;;;4943078;28;20034;-49
2022/08/21 09:20:17;;;;;;;11.15;4.10;;;21.90;99.90;;;;;;4962148;28;20050;-51
2022/08/21 09:23:08;;;;;;;11.63;3.15;;;21.90;99.90;;;;;;4963013;28;20110;-52
2022/08/21 09:25:58;;;;;;;10.45;3.10;;;21.80;99.90;;;;;;4960318;28;20054;-49
2022/08/21 09:28:24;;;;;;;11.27;2.75;;;21.60;99.90;;;;;;4959173;28;20106;-52
2022/08/21 09:30:51;;;;;;;13.90;3.20;;;21.60;99.90;;;;;;4963518;28;20475;-53
2022/08/21 09:33:17;;;;;;;12.20;3.40;;;21.70;99.90;;;;;;4959672;28;20126;-52
2022/08/21 09:35:57;;;;;;;14.30;3.17;;;21.80;99.90;;;;;;4962569;28;20133;-51
2022/08/21 09:38:33;;;;;;;13.65;3.33;;;22.10;99.90;;;;;;4958144;28;20035;-50
2022/08/21 09:41:03;;;;;;;12.27;3.33;;;22.30;99.90;;;;;;4959112;28;20038;-50
2022/08/21 09:43:30;;;;;;;11.25;2.70;;;22.50;99.90;;;;;;4957568;28;20533;-51
2022/08/21 09:46:20;;;;;;;9.20;2.53;;;22.10;99.90;;;;;;4965283;28;20097;-55
2022/08/21 09:48:49;;;;;;;11.15;2.47;;;21.80;99.90;;;;;;4954381;28;20070;-53
2022/08/21 09:51:22;;;;;;;8.70;2.22;;;22.20;99.90;;;;;;4960734;28;20450;-54
2022/08/21 09:54:05;;;;;;;9.88;2.25;;;22.10;99.90;;;;;;4958977;28;20026;-53
2022/08/21 09:59:45;;;;;;;12.48;2.60;;;21.70;99.90;;;;;;4953711;28;20488;-55
2022/08/21 10:02:29;;;;;;;10.57;3.05;;;21.90;99.90;;;;;;4953940;28;20043;-52
2022/08/21 10:05:01;;;;;;;14.43;3.33;;;22.30;99.90;;;;;;4953649;28;20058;-51
2022/08/21 10:07:31;;;;;;;10.98;2.72;;;22.10;99.90;;;;;;4961118;28;20058;-52
2022/08/21 10:10:04;;;;;;;11.05;2.60;;;;;;;;;;4958027;28;20050;-52
2022/08/21 10:12:41;;;;;;;11.02;2.30;;;22.00;99.90;;;;;;4954539;28;20047;-54
2022/08/21 10:15:22;;;;;;;11.05;2.70;;;22.00;99.90;;;;;;4953274;28;20053;-51
2022/08/21 10:18:12;;;;;;;12.80;2.80;;;22.30;99.90;;;;;;4970841;28;20039;-53
2022/08/21 10:20:44;;;;;;;11.57;2.75;;;22.50;99.90;;;;;;4956746;28;20054;-52
2022/08/21 10:23:21;;;;;;;11.98;2.30;;;22.70;99.90;;;;;;4952647;28;20039;-54
2022/08/21 10:26:10;;;;;;;11.68;3.00;;;23.00;99.90;;;;;;4958996;28;20059;-50
2022/08/21 10:29:05;;;;;;;9.70;2.70;;;23.10;99.90;;;;;;4944172;28;20043;-52
2022/08/21 10:31:50;;;;;;;10.10;2.38;;;23.20;99.90;;;;;;4956422;28;20042;-50
2022/08/21 10:34:31;;;;;;;12.60;2.38;;;23.30;99.90;;;;;;4962059;28;20039;-53
2022/08/21 10:37:15;;;;;;;11.52;2.22;;;23.40;99.90;;;;;;4963109;28;20398;-54
2022/08/21 10:39:40;;;;;;;9.20;2.40;;;23.50;99.90;;;;;;4964446;28;20035;-49
2022/08/21 10:42:20;;;;;;;6.13;1.58;;;23.50;99.90;;;;;;4959546;28;20050;-53
2022/08/21 10:45:01;;;;;;;11.23;2.65;;;23.30;99.90;;;;;;4965256;28;20031;-50
2022/08/21 10:47:33;;;;;;;12.15;2.40;;;23.30;99.90;;;;;;4963648;28;20047;-54
2022/08/21 10:50:02;;;;;;;9.30;2.80;;;23.60;99.90;;;;;;4963885;28;20054;-53
2022/08/21 10:52:58;;;;;;;10.95;2.83;;;23.90;99.90;;;;;;4964357;28;20039;-53
2022/08/21 10:55:38;;;;;;;11.80;2.65;;;24.00;99.90;;;;;;4965787;28;20059;-53
2022/08/21 10:58:47;;;;;;;13.45;2.83;;;24.00;99.90;;;;;;4963704;28;20054;-52
2022/08/21 11:01:22;;;;;;;10.35;2.60;;;24.20;99.90;;;;;;4931907;28;20596;-53
2022/08/21 11:03:57;;;;;;;8.50;2.53;;;24.20;99.90;;;;;;4975701;28;20427;-52
2022/08/21 11:06:29;;;;;;;11.68;3.08;;;24.30;99.90;;;;;;4969512;28;20046;-53
2022/08/21 11:09:03;;;;;;;9.45;2.63;;;24.30;99.90;;;;;;4966632;28;20047;-54
2022/08/21 11:11:39;;;;;;;12.63;2.75;;;24.30;99.90;;;;;;4964566;28;20039;-51
2022/08/21 11:14:18;;;;;;;11.82;2.63;;;24.80;99.90;;;;;;4965660;28;20043;-52
2022/08/21 11:16:47;;;;;;;10.73;2.38;;;24.90;99.90;;;;;;4969400;28;20049;-56
2022/08/21 11:19:29;;;;;;;10.32;2.25;;;25.10;99.90;;;;;;4966146;28;20284;-52
2022/08/21 11:22:21;;;;;;;9.75;2.00;;;25.00;99.90;;;;;;4974930;28;20030;-52
2022/08/21 11:25:03;;;;;;;8.25;2.00;;;25.30;99.90;;;;;;4969350;28;20073;-53
2022/08/21 11:27:52;;;;;;;10.00;2.03;;;25.20;99.90;;;;;;4971030;28;20506;-56
2022/08/21 11:30:18;;;;;;;8.93;1.55;;;25.00;99.90;;;;;;4974295;28;20408;-52
2022/08/21 11:32:50;;;;;;;14.05;2.20;;;24.70;99.90;;;;;;4967709;28;20051;-53
2022/08/21 11:35:38;;;;;;;7.38;1.77;;;24.40;99.90;;;;;;4956728;28;20089;-51
2022/08/21 11:38:35;;;;;;;9.77;1.95;;;24.70;99.90;;;;;;4958145;28;20446;-52
2022/08/21 11:41:27;;;;;;;8.50;2.13;;;24.80;99.90;;;;;;4968772;28;20042;-51
2022/08/21 11:44:29;;;;;;;8.90;2.15;;;24.60;99.90;;;;;;4969349;28;20505;-52
2022/08/21 11:47:07;;;;;;;8.10;1.92;;;24.60;99.90;;;;;;4967114;28;20074;-52
2022/08/21 11:50:00;;;;;;;6.65;2.20;;;24.70;99.90;;;;;;4975010;28;20088;-52
2022/08/21 11:52:37;;;;;;;10.50;2.17;;;24.60;99.90;;;;;;4968580;28;20474;-51
2022/08/21 11:55:28;;;;;;;7.88;1.92;;;24.40;99.90;;;;;;4972096;28;20043;-53
2022/08/21 11:58:07;;;;;;;12.75;2.15;;;24.30;99.90;;;;;;4969428;28;20049;-50
2022/08/21 12:00:49;;;;;;;11.63;2.35;;;24.40;99.90;;;;;;4951642;28;20051;-54
2022/08/21 12:03:35;;;;;;;10.57;2.05;;;24.70;99.90;;;;;;4972121;28;20503;-55
2022/08/21 12:06:05;;;;;;;8.60;2.03;;;25.20;99.90;;;;;;4966979;28;20041;-52
2022/08/21 12:08:35;;;;;;;9.30;1.77;;;25.10;99.90;;;;;;4972299;28;20086;-49
2022/08/21 12:11:22;;;;;;;7.47;2.03;;;25.10;99.40;;;;;;4970338;28;20034;-52
2022/08/21 12:14:16;;;;;;;7.13;2.00;;;25.00;99.60;;;;;;4968754;28;20368;-52
2022/08/21 12:16:48;;;;;;;8.63;1.70;;;24.70;99.90;;;;;;4972764;28;20043;-54
2022/08/21 12:19:14;;;;;;;9.98;1.98;;;24.50;99.90;;;;;;4950613;28;20085;-51
2022/08/21 12:22:06;;;;;;;8.25;2.05;;;24.40;99.90;;;;;;4974458;28;20051;-54
2022/08/21 12:24:40;;;;;;;8.57;1.67;;;24.50;99.90;;;;;;4967906;28;20046;-52
2022/08/21 12:27:29;;;;;;;7.85;1.80;;;25.00;99.90;;;;;;4968670;28;20070;-53
2022/08/21 12:30:00;;;;;;;8.52;2.17;;;25.10;99.90;;;;;;4969197;28;20046;-53
2022/08/21 12:32:42;;;;;;;10.63;2.22;;;24.60;99.60;;;;;;4967593;28;20426;-54
2022/08/21 12:35:31;;;;;;;8.55;2.20;;;24.60;99.90;;;;;;4967627;28;20101;-50
2022/08/21 12:38:16;;;;;;;11.02;2.35;;;24.40;99.90;;;;;;4962735;28;20069;-55
2022/08/21 12:40:48;;;;;;;7.53;1.98;;;24.30;99.90;;;;;;4960812;28;20467;-49
2022/08/21 12:43:20;;;;;;;12.32;2.20;;;24.30;99.90;;;;;;4971890;28;20038;-53
2022/08/21 12:45:50;;;;;;;8.85;1.85;;;24.30;99.90;;;;;;4962851;28;20039;-52
2022/08/21 12:48:38;;;;;;;7.82;2.03;;;24.00;99.90;;;;;;4958155;28;20046;-50
2022/08/21 12:51:17;;;;;;;9.90;1.90;;;24.20;99.90;;;;;;4964268;28;20053;-50
2022/08/21 12:53:47;;;;;;;10.30;2.28;;;24.20;99.90;;;;;;4956756;28;20107;-54
2022/08/21 12:56:16;;;;;;;10.75;2.10;;;24.60;99.90;;;;;;4957398;28;20110;-53
2022/08/21 12:58:48;;;;;;;11.20;2.22;;;25.10;99.90;;;;;;4964248;28;20039;-52
2022/08/21 13:01:24;;;;;;;8.80;2.00;;;25.70;99.90;;;;;;4959777;28;20031;-51
2022/08/21 13:03:55;;;;;;;7.80;1.90;;;25.80;99.90;;;;;;4970867;28;20070;-53